createdAt,value
2022-11-15T00:00:31.381Z,4.09
2022-11-15T00:03:15.046Z,4.08
2022-11-15T00:05:50.172Z,4.13
2022-11-15T00:08:30.709Z,4.19
2022-11-15T00:11:04.411Z,4.22
2022-11-15T00:13:38.532Z,4.34
2022-11-15T00:16:12.692Z,4.41
2022-11-15T00:18:50.415Z,4.44
2022-11-15T00:21:22.401Z,4.44
2022-11-15T00:23:54.050Z,4.41
2022-11-15T00:26:27.704Z,4.40
2022-11-15T00:29:01.744Z,4.43
2022-11-15T00:31:33.431Z,4.44
2022-11-15T00:34:05.097Z,4.52
2022-11-15T00:36:45.043Z,4.58
2022-11-15T00:39:21.321Z,4.66
2022-11-15T00:41:53.926Z,4.71
2022-11-15T00:44:25.581Z,4.74
2022-11-15T00:46:58.472Z,4.78
2022-11-15T00:49:32.364Z,4.84
2022-11-15T00:52:09.099Z,4.89
2022-11-15T00:54:41.993Z,4.93
2022-11-15T00:57:15.092Z,4.93
2022-11-15T00:59:46.781Z,4.93
2022-11-15T01:02:22.266Z,4.94
2022-11-15T01:04:56.708Z,4.96
2022-11-15T01:07:28.373Z,4.99
2022-11-15T01:10:00.672Z,4.90
2022-11-15T01:12:33.246Z,4.84
2022-11-15T01:15:05.054Z,4.81
2022-11-15T01:17:38.471Z,4.82
2022-11-15T01:20:12.105Z,4.80
2022-11-15T01:22:46.534Z,4.73
2022-11-15T01:25:20.740Z,4.66
2022-11-15T01:27:57.420Z,4.68
2022-11-15T01:30:31.415Z,4.56
2022-11-15T01:33:06.893Z,4.49
2022-11-15T01:35:44.394Z,4.41
2022-11-15T01:38:16.093Z,4.31
2022-11-15T01:40:51.579Z,4.33
2022-11-15T01:43:26.577Z,4.37
2022-11-15T01:46:02.904Z,4.43
2022-11-15T01:48:36.630Z,4.47
2022-11-15T01:51:16.786Z,4.45
2022-11-15T01:53:53.223Z,4.45
2022-11-15T01:56:28.703Z,4.40
2022-11-15T01:59:03.878Z,4.28
2022-11-15T02:01:37.291Z,4.20
2022-11-15T02:04:14.429Z,4.28
2022-11-15T02:06:55.624Z,4.36
2022-11-15T02:09:32.584Z,4.43
2022-11-15T02:12:04.595Z,4.52
2022-11-15T02:14:38.280Z,4.56
2022-11-15T02:17:21.896Z,4.59
2022-11-15T02:20:34.539Z,4.62
2022-11-15T02:23:43.699Z,4.64
2022-11-15T02:26:56.043Z,4.65
2022-11-15T02:29:51.650Z,4.62
2022-11-15T02:32:34.612Z,4.61
2022-11-15T02:35:21.724Z,4.60
2022-11-15T02:38:00.245Z,4.47
2022-11-15T02:40:41.108Z,4.31
2022-11-15T02:43:34.996Z,4.31
2022-11-15T02:46:15.355Z,4.35
2022-11-15T02:48:47.685Z,4.32
2022-11-15T02:51:24.767Z,4.24
2022-11-15T02:53:56.584Z,4.26
2022-11-15T02:56:30.631Z,4.29
2022-11-15T02:59:16.053Z,4.32
2022-11-15T03:02:09.872Z,4.33
2022-11-15T03:04:53.421Z,4.36
2022-11-15T03:07:33.734Z,4.38
2022-11-15T03:10:19.838Z,4.37
2022-11-15T03:12:59.910Z,4.35
2022-11-15T03:15:35.483Z,4.33
2022-11-15T03:18:19.793Z,4.34
2022-11-15T03:20:58.254Z,4.33
2022-11-15T03:23:33.927Z,4.35
2022-11-15T03:26:16.090Z,4.34
2022-11-15T03:28:54.950Z,4.34
2022-11-15T03:31:51.503Z,4.34
2022-11-15T03:34:37.407Z,4.34
2022-11-15T03:37:11.701Z,4.34
2022-11-15T03:39:47.967Z,4.33
2022-11-15T03:42:27.086Z,4.32
2022-11-15T03:45:15.602Z,4.32
2022-11-15T03:47:53.104Z,4.27
2022-11-15T03:50:31.222Z,4.19
2022-11-15T03:53:03.207Z,4.12
2022-11-15T03:55:35.632Z,4.10
2022-11-15T03:58:11.683Z,4.01
2022-11-15T04:00:43.569Z,3.97
2022-11-15T04:03:15.239Z,4.00
2022-11-15T04:05:49.234Z,4.01
2022-11-15T04:08:21.700Z,4.03
2022-11-15T04:10:56.027Z,4.00
2022-11-15T04:13:29.922Z,4.01
2022-11-15T04:16:03.846Z,4.01
2022-11-15T04:18:36.604Z,3.99
2022-11-15T04:21:27.715Z,3.90
2022-11-15T04:24:15.371Z,3.78
2022-11-15T04:26:49.674Z,3.67
2022-11-15T04:29:37.640Z,3.62
2022-11-15T04:32:12.751Z,3.63
2022-11-15T04:34:44.853Z,3.67
2022-11-15T04:37:17.227Z,3.71
2022-11-15T04:39:49.009Z,3.70
2022-11-15T04:42:23.236Z,3.69
2022-11-15T04:44:57.769Z,3.60
2022-11-15T04:47:30.756Z,3.53
2022-11-15T04:50:10.714Z,3.48
2022-11-15T04:52:43.219Z,3.42
2022-11-15T04:55:15.858Z,3.37
2022-11-15T04:57:47.491Z,3.30
2022-11-15T05:00:22.210Z,3.31
2022-11-15T05:03:12.242Z,3.34
2022-11-15T05:05:43.994Z,3.41
2022-11-15T05:08:15.606Z,3.45
2022-11-15T05:10:47.287Z,3.44
2022-11-15T05:13:19.280Z,3.41
2022-11-15T05:15:51.187Z,3.34
2022-11-15T05:18:23.913Z,3.23
2022-11-15T05:20:55.734Z,3.16
2022-11-15T05:23:27.398Z,3.17
2022-11-15T05:26:07.866Z,3.14
2022-11-15T05:28:41.168Z,3.08
2022-11-15T05:31:14.468Z,3.06
2022-11-15T05:33:48.047Z,3.06
2022-11-15T05:36:23.966Z,2.94
2022-11-15T05:38:56.789Z,2.82
2022-11-15T05:41:35.921Z,2.79
2022-11-15T05:44:14.434Z,2.74
2022-11-15T05:46:54.590Z,2.73
2022-11-15T05:49:31.787Z,2.80
2022-11-15T05:52:05.167Z,2.75
2022-11-15T05:54:37.992Z,2.67
2022-11-15T05:57:10.052Z,2.66
2022-11-15T05:59:42.199Z,2.66
2022-11-15T06:02:14.188Z,2.61
2022-11-15T06:04:45.871Z,2.59
2022-11-15T06:07:17.629Z,2.57
2022-11-15T06:09:49.449Z,2.53
2022-11-15T06:12:21.109Z,2.51
2022-11-15T06:14:52.740Z,2.46
2022-11-15T06:17:24.398Z,2.46
2022-11-15T06:19:56.185Z,2.47
2022-11-15T06:22:27.903Z,2.41
2022-11-15T06:25:05.004Z,2.41
2022-11-15T06:27:37.397Z,2.39
2022-11-15T06:30:14.563Z,2.31
2022-11-15T06:32:46.285Z,2.28
2022-11-15T06:35:18.212Z,2.31
2022-11-15T06:37:50.003Z,2.27
2022-11-15T06:40:21.858Z,2.27
2022-11-15T06:43:00.699Z,2.28
2022-11-15T06:45:34.632Z,2.25
2022-11-15T06:48:07.056Z,2.27
2022-11-15T06:50:38.704Z,2.36
2022-11-15T06:53:10.413Z,2.42
2022-11-15T06:55:42.359Z,2.46
2022-11-15T06:58:14.127Z,2.51
2022-11-15T07:00:46.219Z,2.57
2022-11-15T07:03:18.040Z,2.66
2022-11-15T07:05:56.832Z,2.72
2022-11-15T07:08:30.860Z,2.81
2022-11-15T07:11:04.456Z,2.90
2022-11-15T07:13:43.402Z,2.93
2022-11-15T07:16:15.195Z,2.89
2022-11-15T07:18:46.900Z,2.90
2022-11-15T07:21:19.128Z,2.96
2022-11-15T07:23:53.437Z,3.06
2022-11-15T07:26:26.665Z,3.15
2022-11-15T07:28:58.464Z,3.23
2022-11-15T07:31:30.614Z,3.40
2022-11-15T07:34:03.493Z,3.53
2022-11-15T07:36:35.407Z,3.63
2022-11-15T07:39:07.792Z,3.81
2022-11-15T07:41:39.648Z,4.00
2022-11-15T07:44:11.748Z,4.16
2022-11-15T07:46:43.407Z,4.28
2022-11-15T07:49:15.232Z,4.40
2022-11-15T07:51:47.502Z,4.47
2022-11-15T07:54:19.371Z,4.47
2022-11-15T07:56:51.976Z,4.50
2022-11-15T07:59:23.708Z,4.48
2022-11-15T08:01:55.394Z,4.57
2022-11-15T08:04:27.494Z,4.69
2022-11-15T08:06:59.929Z,4.75
2022-11-15T08:09:32.285Z,4.79
2022-11-15T08:12:04.338Z,4.91
2022-11-15T08:14:36.715Z,5.06
2022-11-15T08:17:08.847Z,5.18
2022-11-15T08:19:40.764Z,5.34
2022-11-15T08:22:12.373Z,5.52
2022-11-15T08:24:44.066Z,5.66
2022-11-15T08:27:16.937Z,5.78
2022-11-15T08:29:49.611Z,5.95
2022-11-15T08:32:21.336Z,6.08
2022-11-15T08:34:53.018Z,6.23
2022-11-15T08:37:24.752Z,6.38
2022-11-15T08:39:56.441Z,6.48
2022-11-15T08:42:28.230Z,6.54
2022-11-15T08:44:59.948Z,6.68
2022-11-15T08:47:32.273Z,6.81
2022-11-15T08:50:04.453Z,6.91
2022-11-15T08:52:42.349Z,7.00
2022-11-15T08:55:16.835Z,7.02
2022-11-15T08:57:49.443Z,6.99
2022-11-15T09:00:25.515Z,7.04
2022-11-15T09:02:57.280Z,7.20
2022-11-15T09:05:29.726Z,7.35
2022-11-15T09:08:18.799Z,7.47
2022-11-15T09:10:54.206Z,7.63
2022-11-15T09:13:26.260Z,7.76
2022-11-15T09:16:01.236Z,7.89
2022-11-15T09:18:48.089Z,8.00
2022-11-15T09:21:25.716Z,7.97
2022-11-15T09:23:58.627Z,8.08
2022-11-15T09:26:30.365Z,8.22
2022-11-15T09:29:02.435Z,8.35
2022-11-15T09:31:34.567Z,8.46
2022-11-15T09:34:06.293Z,8.55
2022-11-15T09:36:38.054Z,8.68
2022-11-15T09:39:10.487Z,8.81
2022-11-15T09:42:07.243Z,8.93
2022-11-15T09:44:54.451Z,9.03
2022-11-15T09:47:57.015Z,9.13
2022-11-15T09:50:39.083Z,9.24
2022-11-15T09:53:16.272Z,9.34
2022-11-15T09:55:58.889Z,9.43
2022-11-15T09:58:39.932Z,9.49
2022-11-15T10:01:19.332Z,9.52
2022-11-15T10:03:51.131Z,9.57
2022-11-15T10:06:27.351Z,9.61
2022-11-15T10:09:04.165Z,9.67
2022-11-15T10:11:39.160Z,9.75
2022-11-15T10:14:17.351Z,9.82
2022-11-15T10:17:11.899Z,9.88
2022-11-15T10:19:54.858Z,10.00
2022-11-15T10:22:32.560Z,10.08
2022-11-15T10:25:20.650Z,10.16
2022-11-15T10:27:57.594Z,10.22
2022-11-15T10:30:35.338Z,10.25
2022-11-15T10:33:19.918Z,10.31
2022-11-15T10:36:11.681Z,10.42
2022-11-15T10:38:55.536Z,10.59
2022-11-15T10:41:37.480Z,10.68
2022-11-15T10:44:32.410Z,10.77
2022-11-15T10:47:38.866Z,10.90
2022-11-15T10:50:32.892Z,11.08
2022-11-15T10:53:05.230Z,11.22
2022-11-15T10:55:37.645Z,11.28
2022-11-15T10:58:27.015Z,11.34
2022-11-15T11:01:10.624Z,11.38
2022-11-15T11:03:43.496Z,11.30
2022-11-15T11:06:17.318Z,11.23
2022-11-15T11:09:00.179Z,11.26
2022-11-15T11:11:49.391Z,11.32
2022-11-15T11:14:26.911Z,11.38
2022-11-15T11:17:06.007Z,11.44
2022-11-15T11:20:02.780Z,11.50
2022-11-15T11:22:41.974Z,11.51
2022-11-15T11:25:26.146Z,11.51
2022-11-15T11:28:16.988Z,11.49
2022-11-15T11:30:59.337Z,11.54
2022-11-15T11:33:35.819Z,11.58
2022-11-15T11:36:19.469Z,11.58
2022-11-15T11:39:02.566Z,11.57
2022-11-15T11:42:04.805Z,11.63
2022-11-15T11:44:45.885Z,11.70
2022-11-15T11:47:22.566Z,11.74
2022-11-15T11:49:58.638Z,11.78
2022-11-15T11:52:36.781Z,11.85
2022-11-15T11:55:17.947Z,11.96
2022-11-15T11:57:58.606Z,12.10
2022-11-15T12:00:34.611Z,12.24
2022-11-15T12:03:14.340Z,12.38
2022-11-15T12:05:51.177Z,12.49
2022-11-15T12:08:34.358Z,12.63
2022-11-15T12:11:15.938Z,12.82
2022-11-15T12:13:50.767Z,12.89
2022-11-15T12:16:28.583Z,12.88
2022-11-15T12:19:04.163Z,12.82
2022-11-15T12:21:44.135Z,12.73
2022-11-15T12:24:21.710Z,12.68
2022-11-15T12:26:59.401Z,12.60
2022-11-15T12:29:35.731Z,12.58
2022-11-15T12:32:33.953Z,12.57
2022-11-15T12:35:21.917Z,12.58
2022-11-15T12:37:57.240Z,12.55
2022-11-15T12:40:38.542Z,12.51
2022-11-15T12:43:41.996Z,12.49
2022-11-15T12:46:24.665Z,12.41
2022-11-15T12:49:01.736Z,12.36
2022-11-15T12:52:08.083Z,12.34
2022-11-15T12:55:33.630Z,12.32
2022-11-15T12:58:31.450Z,12.37
2022-11-15T13:01:34.328Z,12.45
2022-11-15T13:04:28.929Z,12.52
2022-11-15T13:07:04.135Z,12.48
2022-11-15T13:09:57.126Z,12.33
2022-11-15T13:12:53.212Z,12.14
2022-11-15T13:15:47.948Z,11.87
2022-11-15T13:18:41.699Z,11.64
2022-11-15T13:21:43.167Z,11.49
2022-11-15T13:24:21.045Z,11.39
2022-11-15T13:26:53.080Z,11.36
2022-11-15T13:29:25.026Z,11.35
2022-11-15T13:31:56.799Z,11.18
2022-11-15T13:34:51.147Z,10.95
2022-11-15T13:37:34.653Z,10.70
2022-11-15T13:40:25.297Z,10.44
2022-11-15T13:43:04.397Z,10.24
2022-11-15T13:45:37.111Z,10.00
2022-11-15T13:48:12.388Z,9.84
2022-11-15T13:50:44.300Z,9.68
2022-11-15T13:53:16.165Z,9.43
2022-11-15T13:55:47.962Z,9.18
2022-11-15T13:58:24.150Z,9.01
2022-11-15T14:01:05.258Z,8.86
2022-11-15T14:03:48.870Z,8.69
2022-11-15T14:06:23.482Z,8.64
2022-11-15T14:09:33.903Z,8.55
2022-11-15T14:12:26.496Z,8.36
2022-11-15T14:14:58.386Z,8.22
2022-11-15T14:17:45.773Z,8.12
2022-11-15T14:20:35.693Z,8.05
2022-11-15T14:23:20.845Z,7.98
2022-11-15T14:25:58.596Z,7.75
2022-11-15T14:28:38.417Z,7.57
2022-11-15T14:31:15.350Z,7.44
2022-11-15T14:33:46.986Z,7.36
2022-11-15T14:36:20.771Z,7.30
2022-11-15T14:38:52.617Z,7.30
2022-11-15T14:41:27.480Z,7.28
2022-11-15T14:43:59.147Z,7.22
2022-11-15T14:46:30.843Z,7.20
2022-11-15T14:49:02.477Z,7.13
2022-11-15T14:51:35.118Z,7.04
2022-11-15T14:54:07.118Z,6.97
2022-11-15T14:56:38.872Z,6.90
2022-11-15T14:59:10.463Z,6.83
2022-11-15T15:01:42.275Z,6.81
2022-11-15T15:04:14.384Z,6.70
2022-11-15T15:06:46.238Z,6.63
2022-11-15T15:09:17.935Z,6.60
2022-11-15T15:11:49.761Z,6.54
2022-11-15T15:14:21.479Z,6.48
2022-11-15T15:16:53.113Z,6.43
2022-11-15T15:19:26.290Z,6.43
2022-11-15T15:21:58.036Z,6.39
2022-11-15T15:24:29.842Z,6.37
2022-11-15T15:27:01.682Z,6.39
2022-11-15T15:29:33.331Z,6.37
2022-11-15T15:32:05.131Z,6.38
2022-11-15T15:34:36.780Z,6.36
2022-11-15T15:37:21.302Z,6.34
2022-11-15T15:39:53.146Z,6.37
2022-11-15T15:42:25.431Z,6.43
2022-11-15T15:44:57.191Z,6.48
2022-11-15T15:47:29.304Z,6.45
2022-11-15T15:50:01.145Z,6.45
2022-11-15T15:52:32.814Z,6.51
2022-11-15T15:55:04.538Z,6.50
2022-11-15T15:57:38.238Z,6.46
2022-11-15T16:00:12.989Z,6.40
2022-11-15T16:02:45.155Z,6.39
2022-11-15T16:05:18.408Z,6.34
2022-11-15T16:07:51.744Z,6.32
2022-11-15T16:10:28.936Z,6.28
2022-11-15T16:13:01.090Z,6.19
2022-11-15T16:15:34.330Z,6.14
2022-11-15T16:18:09.136Z,6.10
2022-11-15T16:20:43.634Z,6.10
2022-11-15T16:23:17.185Z,6.07
2022-11-15T16:25:51.522Z,6.03
2022-11-15T16:28:25.738Z,5.98
2022-11-15T16:31:05.983Z,5.97
2022-11-15T16:33:37.685Z,5.95
2022-11-15T16:36:16.976Z,5.94
2022-11-15T16:38:48.809Z,5.91
2022-11-15T16:41:20.875Z,5.89
2022-11-15T16:43:52.926Z,5.83
2022-11-15T16:46:26.302Z,5.77
2022-11-15T16:48:58.268Z,5.72
2022-11-15T16:51:30.011Z,5.67
2022-11-15T16:54:01.804Z,5.69
2022-11-15T16:56:33.862Z,5.75
2022-11-15T16:59:05.886Z,5.82
2022-11-15T17:01:46.985Z,5.79
2022-11-15T17:04:18.379Z,5.76
2022-11-15T17:06:48.918Z,5.70
2022-11-15T17:09:24.757Z,5.64
2022-11-15T17:11:56.857Z,5.67
2022-11-15T17:14:29.936Z,5.71
2022-11-15T17:17:02.703Z,5.69
2022-11-15T17:19:34.805Z,5.72
2022-11-15T17:22:06.523Z,5.77
2022-11-15T17:24:38.322Z,5.79
2022-11-15T17:27:10.107Z,5.80
2022-11-15T17:29:45.166Z,5.81
2022-11-15T17:32:16.908Z,5.82
2022-11-15T17:34:49.223Z,5.76
2022-11-15T17:37:20.911Z,5.69
2022-11-15T17:39:52.586Z,5.67
2022-11-15T17:42:24.248Z,5.70
2022-11-15T17:44:56.004Z,5.69
2022-11-15T17:47:27.714Z,5.69
2022-11-15T17:49:59.508Z,5.64
2022-11-15T17:52:31.155Z,5.58
2022-11-15T17:55:02.910Z,5.53
2022-11-15T17:57:34.631Z,5.54
2022-11-15T18:00:11.068Z,5.60
2022-11-15T18:02:42.732Z,5.60
2022-11-15T18:05:14.528Z,5.60
2022-11-15T18:07:46.209Z,5.58
2022-11-15T18:10:23.172Z,5.56
2022-11-15T18:12:55.831Z,5.53
2022-11-15T18:15:27.792Z,5.53
2022-11-15T18:18:00.953Z,5.58
2022-11-15T18:20:33.429Z,5.65
2022-11-15T18:23:07.212Z,5.71
2022-11-15T18:25:38.940Z,5.69
2022-11-15T18:28:10.649Z,5.67
2022-11-15T18:30:44.700Z,5.65
2022-11-15T18:33:16.452Z,5.62
2022-11-15T18:35:48.638Z,5.61
2022-11-15T18:38:20.323Z,5.64
2022-11-15T18:40:52.003Z,5.64
2022-11-15T18:43:23.651Z,5.61
2022-11-15T18:45:55.384Z,5.61
2022-11-15T18:48:30.021Z,5.60
2022-11-15T18:51:05.748Z,5.61
2022-11-15T18:53:38.397Z,5.61
2022-11-15T18:56:12.114Z,5.62
2022-11-15T18:58:48.690Z,5.65
2022-11-15T19:01:32.171Z,5.66
2022-11-15T19:04:23.939Z,5.70
2022-11-15T19:06:55.681Z,5.65
2022-11-15T19:09:32.832Z,5.65
2022-11-15T19:12:05.336Z,5.61
2022-11-15T19:14:38.180Z,5.58
2022-11-15T19:17:10.111Z,5.56
2022-11-15T19:19:41.815Z,5.55
2022-11-15T19:22:13.494Z,5.46
2022-11-15T19:24:50.284Z,5.42
2022-11-15T19:27:23.345Z,5.48
2022-11-15T19:29:55.143Z,5.48
2022-11-15T19:32:27.962Z,5.48
2022-11-15T19:34:59.674Z,5.50
2022-11-15T19:37:45.499Z,5.51
2022-11-15T19:40:40.583Z,5.44
2022-11-15T19:43:44.383Z,5.38
2022-11-15T19:46:45.529Z,5.32
2022-11-15T19:49:53.889Z,5.25
2022-11-15T19:52:38.224Z,5.24
2022-11-15T19:55:11.273Z,5.27
2022-11-15T19:57:42.879Z,5.22
2022-11-15T20:00:15.873Z,5.26
2022-11-15T20:02:47.850Z,5.32
2022-11-15T20:05:24.684Z,5.36
2022-11-15T20:08:04.871Z,5.45
2022-11-15T20:10:48.810Z,5.48
2022-11-15T20:13:24.015Z,5.44
2022-11-15T20:16:02.436Z,5.40
2022-11-15T20:18:37.045Z,5.44
2022-11-15T20:21:15.085Z,5.50
2022-11-15T20:23:53.116Z,5.57
2022-11-15T20:26:26.923Z,5.64
2022-11-15T20:29:01.334Z,5.69
2022-11-15T20:31:47.910Z,5.72
2022-11-15T20:34:22.564Z,5.76
2022-11-15T20:36:57.532Z,5.75
2022-11-15T20:39:32.566Z,5.77
2022-11-15T20:42:04.532Z,5.78
2022-11-15T20:44:36.205Z,5.79
2022-11-15T20:47:10.502Z,5.81
2022-11-15T20:49:46.075Z,5.83
2022-11-15T20:52:20.954Z,5.81
2022-11-15T20:54:52.697Z,5.81
2022-11-15T20:57:24.460Z,5.80
2022-11-15T20:59:56.534Z,5.82
2022-11-15T21:02:29.155Z,5.87
2022-11-15T21:05:01.355Z,5.90
2022-11-15T21:07:33.077Z,5.95
2022-11-15T21:10:29.123Z,5.92
2022-11-15T21:13:03.223Z,5.90
2022-11-15T21:15:36.961Z,5.88
2022-11-15T21:18:09.203Z,5.89
2022-11-15T21:20:40.839Z,5.94
2022-11-15T21:23:13.058Z,6.02
2022-11-15T21:25:52.775Z,6.12
2022-11-15T21:28:24.656Z,6.17
2022-11-15T21:30:58.303Z,6.15
2022-11-15T21:33:38.194Z,6.20
2022-11-15T21:36:13.743Z,6.22
2022-11-15T21:38:48.857Z,6.25
2022-11-15T21:41:22.060Z,6.25
2022-11-15T21:43:53.807Z,6.24
2022-11-15T21:46:25.959Z,6.28
2022-11-15T21:48:58.292Z,6.31
2022-11-15T21:51:31.461Z,6.29
2022-11-15T21:54:07.024Z,6.26
2022-11-15T21:56:38.730Z,6.23
2022-11-15T21:59:10.498Z,6.18
2022-11-15T22:01:59.688Z,6.19
2022-11-15T22:04:32.769Z,6.23
2022-11-15T22:07:07.720Z,6.23
2022-11-15T22:09:40.477Z,6.22
2022-11-15T22:12:14.769Z,6.23
2022-11-15T22:14:46.713Z,6.25
2022-11-15T22:17:18.645Z,6.25
2022-11-15T22:19:53.708Z,6.24
2022-11-15T22:22:25.623Z,6.26
2022-11-15T22:24:57.823Z,6.28
2022-11-15T22:27:29.672Z,6.27
2022-11-15T22:30:10.851Z,6.25
2022-11-15T22:32:44.327Z,6.25
2022-11-15T22:35:17.805Z,6.29
2022-11-15T22:37:49.614Z,6.32
2022-11-15T22:40:27.768Z,6.33
2022-11-15T22:42:59.813Z,6.33
2022-11-15T22:45:31.744Z,6.33
2022-11-15T22:48:06.611Z,6.33
2022-11-15T22:50:38.414Z,6.35
2022-11-15T22:53:12.818Z,6.36
2022-11-15T22:55:44.998Z,6.37
2022-11-15T22:58:19.566Z,6.34
2022-11-15T23:00:56.261Z,6.33
2022-11-15T23:03:32.521Z,6.38
2022-11-15T23:06:11.816Z,6.38
2022-11-15T23:08:43.676Z,6.36
2022-11-15T23:11:33.347Z,6.34
2022-11-15T23:14:06.420Z,6.31
2022-11-15T23:16:39.845Z,6.35
2022-11-15T23:19:13.466Z,6.36
2022-11-15T23:22:04.623Z,6.37
2022-11-15T23:24:36.662Z,6.40
2022-11-15T23:27:09.542Z,6.38
2022-11-15T23:29:55.193Z,6.35
2022-11-15T23:32:46.051Z,6.38
2022-11-15T23:35:18.014Z,6.42
2022-11-15T23:37:49.807Z,6.40
2022-11-15T23:40:29.350Z,6.39
2022-11-15T23:43:01.800Z,6.37
2022-11-15T23:45:38.762Z,6.34
2022-11-15T23:48:10.758Z,6.35
2022-11-15T23:50:42.542Z,6.37
2022-11-15T23:53:14.358Z,6.38
2022-11-15T23:55:54.686Z,6.43
2022-11-15T23:58:28.777Z,6.41
